sensor_id;sensor_type;location;lat;lon;timestamp;temperature;humidity
51215;DHT22;63849;47.546;19.254;2023-04-06T00:01:57;0.70;56.60
51215;DHT22;63849;47.546;19.254;2023-04-06T00:04:23;0.40;56.90
51215;DHT22;63849;47.546;19.254;2023-04-06T00:06:49;0.30;57.50
51215;DHT22;63849;47.546;19.254;2023-04-06T00:09:15;0.30;58.10
51215;DHT22;63849;47.546;19.254;2023-04-06T00:11:41;0.30;58.30
51215;DHT22;63849;47.546;19.254;2023-04-06T00:14:06;0.30;58.60
51215;DHT22;63849;47.546;19.254;2023-04-06T00:16:32;0.20;59.90
51215;DHT22;63849;47.546;19.254;2023-04-06T00:18:58;0.20;60.00
51215;DHT22;63849;47.546;19.254;2023-04-06T00:21:24;0.10;60.50
51215;DHT22;63849;47.546;19.254;2023-04-06T00:23:51;0.20;59.30
51215;DHT22;63849;47.546;19.254;2023-04-06T00:26:17;0.10;59.30
51215;DHT22;63849;47.546;19.254;2023-04-06T00:28:42;0.10;59.80
51215;DHT22;63849;47.546;19.254;2023-04-06T00:31:09;0.20;59.40
51215;DHT22;63849;47.546;19.254;2023-04-06T00:33:35;0.20;59.90
51215;DHT22;63849;47.546;19.254;2023-04-06T00:36:03;0.20;60.10
51215;DHT22;63849;47.546;19.254;2023-04-06T00:38:29;0.20;59.90
51215;DHT22;63849;47.546;19.254;2023-04-06T00:40:54;0.20;59.70
51215;DHT22;63849;47.546;19.254;2023-04-06T00:43:20;0.30;58.70
51215;DHT22;63849;47.546;19.254;2023-04-06T00:45:46;0.40;58.30
51215;DHT22;63849;47.546;19.254;2023-04-06T00:48:12;0.40;58.20
51215;DHT22;63849;47.546;19.254;2023-04-06T00:50:38;0.20;58.50
51215;DHT22;63849;47.546;19.254;2023-04-06T00:53:04;0.00;59.40
51215;DHT22;63849;47.546;19.254;2023-04-06T00:55:30;0.10;59.40
51215;DHT22;63849;47.546;19.254;2023-04-06T00:57:58;0.20;58.80
51215;DHT22;63849;47.546;19.254;2023-04-06T01:00:25;0.30;58.90
51215;DHT22;63849;47.546;19.254;2023-04-06T01:02:51;0.20;59.50
51215;DHT22;63849;47.546;19.254;2023-04-06T01:05:17;0.20;59.70
51215;DHT22;63849;47.546;19.254;2023-04-06T01:07:42;0.30;59.70
51215;DHT22;63849;47.546;19.254;2023-04-06T01:10:09;0.40;59.10
51215;DHT22;63849;47.546;19.254;2023-04-06T01:12:35;0.30;59.10
51215;DHT22;63849;47.546;19.254;2023-04-06T01:15:03;0.30;60.20
51215;DHT22;63849;47.546;19.254;2023-04-06T01:17:30;0.30;60.30
51215;DHT22;63849;47.546;19.254;2023-04-06T01:19:56;0.30;60.20
51215;DHT22;63849;47.546;19.254;2023-04-06T01:22:24;0.30;60.20
51215;DHT22;63849;47.546;19.254;2023-04-06T01:24:50;0.30;60.60
51215;DHT22;63849;47.546;19.254;2023-04-06T01:27:16;0.30;61.00
51215;DHT22;63849;47.546;19.254;2023-04-06T01:29:42;0.20;61.40
51215;DHT22;63849;47.546;19.254;2023-04-06T01:32:08;0.00;62.40
51215;DHT22;63849;47.546;19.254;2023-04-06T01:34:34;0.00;62.20
51215;DHT22;63849;47.546;19.254;2023-04-06T01:37:00;0.20;61.90
51215;DHT22;63849;47.546;19.254;2023-04-06T01:39:26;0.00;61.40
51215;DHT22;63849;47.546;19.254;2023-04-06T01:41:51;0.10;62.00
51215;DHT22;63849;47.546;19.254;2023-04-06T01:44:18;0.20;60.20
51215;DHT22;63849;47.546;19.254;2023-04-06T01:46:44;0.10;60.30
51215;DHT22;63849;47.546;19.254;2023-04-06T01:49:11;0.10;60.20
51215;DHT22;63849;47.546;19.254;2023-04-06T01:51:37;0.10;60.00
51215;DHT22;63849;47.546;19.254;2023-04-06T01:54:03;0.20;59.70
51215;DHT22;63849;47.546;19.254;2023-04-06T01:56:29;0.30;59.30
51215;DHT22;63849;47.546;19.254;2023-04-06T01:58:55;0.10;59.70
51215;DHT22;63849;47.546;19.254;2023-04-06T02:01:22;0.00;60.50
51215;DHT22;63849;47.546;19.254;2023-04-06T02:03:47;-0.10;61.30
51215;DHT22;63849;47.546;19.254;2023-04-06T02:06:13;0.00;61.00
51215;DHT22;63849;47.546;19.254;2023-04-06T02:08:40;-0.10;61.00
51215;DHT22;63849;47.546;19.254;2023-04-06T02:11:06;-0.30;62.40
51215;DHT22;63849;47.546;19.254;2023-04-06T02:13:32;-0.50;63.20
51215;DHT22;63849;47.546;19.254;2023-04-06T02:15:58;-0.40;63.00
51215;DHT22;63849;47.546;19.254;2023-04-06T02:18:24;-0.30;62.60
51215;DHT22;63849;47.546;19.254;2023-04-06T02:20:50;-0.30;63.00
51215;DHT22;63849;47.546;19.254;2023-04-06T02:23:19;-0.10;62.70
51215;DHT22;63849;47.546;19.254;2023-04-06T02:25:44;-0.30;62.60
51215;DHT22;63849;47.546;19.254;2023-04-06T02:28:10;-0.40;63.80
51215;DHT22;63849;47.546;19.254;2023-04-06T02:30:36;-0.30;63.50
51215;DHT22;63849;47.546;19.254;2023-04-06T02:33:02;-0.40;63.70
51215;DHT22;63849;47.546;19.254;2023-04-06T02:35:29;-0.50;63.70
51215;DHT22;63849;47.546;19.254;2023-04-06T02:37:55;-0.40;64.00
51215;DHT22;63849;47.546;19.254;2023-04-06T02:40:21;-0.30;63.30
51215;DHT22;63849;47.546;19.254;2023-04-06T02:42:47;-0.10;62.60
51215;DHT22;63849;47.546;19.254;2023-04-06T02:45:13;-0.10;62.10
51215;DHT22;63849;47.546;19.254;2023-04-06T02:47:40;-0.10;62.10
51215;DHT22;63849;47.546;19.254;2023-04-06T02:50:06;-0.10;62.20
51215;DHT22;63849;47.546;19.254;2023-04-06T02:52:32;0.00;62.10
51215;DHT22;63849;47.546;19.254;2023-04-06T02:54:58;0.00;62.00
51215;DHT22;63849;47.546;19.254;2023-04-06T02:57:23;0.00;62.20
51215;DHT22;63849;47.546;19.254;2023-04-06T02:59:49;-0.10;62.50
51215;DHT22;63849;47.546;19.254;2023-04-06T03:02:15;-0.10;62.70
51215;DHT22;63849;47.546;19.254;2023-04-06T03:04:44;-0.10;63.30
51215;DHT22;63849;47.546;19.254;2023-04-06T03:07:10;-0.20;64.00
51215;DHT22;63849;47.546;19.254;2023-04-06T03:09:39;-0.10;63.60
51215;DHT22;63849;47.546;19.254;2023-04-06T03:12:05;-0.10;63.00
51215;DHT22;63849;47.546;19.254;2023-04-06T03:14:31;-0.10;63.70
51215;DHT22;63849;47.546;19.254;2023-04-06T03:16:57;-0.10;63.10
51215;DHT22;63849;47.546;19.254;2023-04-06T03:19:22;-0.20;63.70
51215;DHT22;63849;47.546;19.254;2023-04-06T03:21:49;-0.40;62.80
51215;DHT22;63849;47.546;19.254;2023-04-06T03:24:15;-0.40;62.50
51215;DHT22;63849;47.546;19.254;2023-04-06T03:26:41;-0.10;61.60
51215;DHT22;63849;47.546;19.254;2023-04-06T03:29:07;-0.10;61.60
51215;DHT22;63849;47.546;19.254;2023-04-06T03:31:33;0.00;61.40
51215;DHT22;63849;47.546;19.254;2023-04-06T03:33:59;-0.10;62.50
51215;DHT22;63849;47.546;19.254;2023-04-06T03:36:25;0.00;62.40
51215;DHT22;63849;47.546;19.254;2023-04-06T03:38:51;-0.10;62.50
51215;DHT22;63849;47.546;19.254;2023-04-06T03:41:19;-0.20;62.90
51215;DHT22;63849;47.546;19.254;2023-04-06T03:43:45;-0.30;63.40
51215;DHT22;63849;47.546;19.254;2023-04-06T03:46:11;-0.10;62.90
51215;DHT22;63849;47.546;19.254;2023-04-06T03:48:37;0.00;62.40
51215;DHT22;63849;47.546;19.254;2023-04-06T03:51:03;-0.10;62.50
51215;DHT22;63849;47.546;19.254;2023-04-06T03:53:30;-0.30;63.20
51215;DHT22;63849;47.546;19.254;2023-04-06T03:55:57;-0.50;64.40
51215;DHT22;63849;47.546;19.254;2023-04-06T03:58:23;-0.30;63.40
51215;DHT22;63849;47.546;19.254;2023-04-06T04:00:49;-0.40;63.50
51215;DHT22;63849;47.546;19.254;2023-04-06T04:03:15;-0.30;63.20
51215;DHT22;63849;47.546;19.254;2023-04-06T04:05:40;-0.10;62.50
51215;DHT22;63849;47.546;19.254;2023-04-06T04:08:06;-0.10;62.40
51215;DHT22;63849;47.546;19.254;2023-04-06T04:10:32;-0.40;63.30
51215;DHT22;63849;47.546;19.254;2023-04-06T04:12:58;-0.60;64.20
51215;DHT22;63849;47.546;19.254;2023-04-06T04:15:24;-0.50;64.10
51215;DHT22;63849;47.546;19.254;2023-04-06T04:17:49;-0.40;63.60
51215;DHT22;63849;47.546;19.254;2023-04-06T04:20:16;-0.30;64.10
51215;DHT22;63849;47.546;19.254;2023-04-06T04:22:42;-0.30;63.40
51215;DHT22;63849;47.546;19.254;2023-04-06T04:25:09;-0.20;63.60
51215;DHT22;63849;47.546;19.254;2023-04-06T04:27:35;-0.20;63.70
51215;DHT22;63849;47.546;19.254;2023-04-06T04:30:01;-0.20;64.00
51215;DHT22;63849;47.546;19.254;2023-04-06T04:32:27;-0.10;63.30
51215;DHT22;63849;47.546;19.254;2023-04-06T04:34:55;-0.10;62.90
51215;DHT22;63849;47.546;19.254;2023-04-06T04:37:21;0.00;61.70
51215;DHT22;63849;47.546;19.254;2023-04-06T04:39:47;0.20;60.90
51215;DHT22;63849;47.546;19.254;2023-04-06T04:42:13;0.40;60.20
51215;DHT22;63849;47.546;19.254;2023-04-06T04:44:39;0.70;59.20
51215;DHT22;63849;47.546;19.254;2023-04-06T04:47:05;0.80;59.00
51215;DHT22;63849;47.546;19.254;2023-04-06T04:49:31;0.50;60.60
51215;DHT22;63849;47.546;19.254;2023-04-06T04:51:57;0.40;61.00
51215;DHT22;63849;47.546;19.254;2023-04-06T04:54:22;0.70;60.40
51215;DHT22;63849;47.546;19.254;2023-04-06T04:56:48;0.90;59.20
51215;DHT22;63849;47.546;19.254;2023-04-06T04:59:14;1.20;59.20
51215;DHT22;63849;47.546;19.254;2023-04-06T05:01:40;1.20;59.30
51215;DHT22;63849;47.546;19.254;2023-04-06T05:04:05;1.50;58.00
51215;DHT22;63849;47.546;19.254;2023-04-06T05:06:31;1.70;57.50
51215;DHT22;63849;47.546;19.254;2023-04-06T05:08:57;1.80;57.20
51215;DHT22;63849;47.546;19.254;2023-04-06T05:11:23;1.80;57.50
51215;DHT22;63849;47.546;19.254;2023-04-06T05:13:49;2.10;56.70
51215;DHT22;63849;47.546;19.254;2023-04-06T05:16:15;2.30;56.30
51215;DHT22;63849;47.546;19.254;2023-04-06T05:18:41;2.60;55.20
51215;DHT22;63849;47.546;19.254;2023-04-06T05:21:07;3.00;53.90
51215;DHT22;63849;47.546;19.254;2023-04-06T05:23:34;3.30;52.60
51215;DHT22;63849;47.546;19.254;2023-04-06T05:25:59;3.90;51.50
51215;DHT22;63849;47.546;19.254;2023-04-06T05:28:27;4.30;50.10
51215;DHT22;63849;47.546;19.254;2023-04-06T05:30:53;4.40;50.20
51215;DHT22;63849;47.546;19.254;2023-04-06T05:33:19;4.90;48.70
51215;DHT22;63849;47.546;19.254;2023-04-06T05:35:45;4.80;48.80
51215;DHT22;63849;47.546;19.254;2023-04-06T05:38:17;4.90;47.30
51215;DHT22;63849;47.546;19.254;2023-04-06T05:40:46;5.00;46.90
51215;DHT22;63849;47.546;19.254;2023-04-06T05:43:14;5.00;48.20
51215;DHT22;63849;47.546;19.254;2023-04-06T05:45:44;5.10;47.80
51215;DHT22;63849;47.546;19.254;2023-04-06T05:48:10;5.50;47.70
51215;DHT22;63849;47.546;19.254;2023-04-06T05:50:36;5.40;48.30
51215;DHT22;63849;47.546;19.254;2023-04-06T05:53:01;5.40;48.10
51215;DHT22;63849;47.546;19.254;2023-04-06T05:55:27;6.00;46.20
51215;DHT22;63849;47.546;19.254;2023-04-06T05:57:53;6.10;46.20
51215;DHT22;63849;47.546;19.254;2023-04-06T06:00:22;6.30;45.30
51215;DHT22;63849;47.546;19.254;2023-04-06T06:02:51;6.40;45.50
51215;DHT22;63849;47.546;19.254;2023-04-06T06:05:19;6.30;46.20
51215;DHT22;63849;47.546;19.254;2023-04-06T06:07:48;6.50;45.90
51215;DHT22;63849;47.546;19.254;2023-04-06T06:10:16;6.60;45.70
51215;DHT22;63849;47.546;19.254;2023-04-06T06:12:45;6.90;44.50
51215;DHT22;63849;47.546;19.254;2023-04-06T06:15:11;6.90;44.60
51215;DHT22;63849;47.546;19.254;2023-04-06T06:17:40;7.30;44.40
51215;DHT22;63849;47.546;19.254;2023-04-06T06:20:09;7.80;43.20
51215;DHT22;63849;47.546;19.254;2023-04-06T06:22:35;7.70;42.50
51215;DHT22;63849;47.546;19.254;2023-04-06T06:25:01;7.30;43.00
51215;DHT22;63849;47.546;19.254;2023-04-06T06:27:30;7.30;43.40
51215;DHT22;63849;47.546;19.254;2023-04-06T06:29:56;7.20;42.70
51215;DHT22;63849;47.546;19.254;2023-04-06T06:32:22;6.80;43.60
51215;DHT22;63849;47.546;19.254;2023-04-06T06:34:50;6.30;44.40
51215;DHT22;63849;47.546;19.254;2023-04-06T06:37:16;6.90;44.40
51215;DHT22;63849;47.546;19.254;2023-04-06T06:39:42;6.10;43.30
51215;DHT22;63849;47.546;19.254;2023-04-06T06:42:10;6.60;47.10
51215;DHT22;63849;47.546;19.254;2023-04-06T06:44:36;7.20;45.20
51215;DHT22;63849;47.546;19.254;2023-04-06T06:47:02;7.60;43.80
51215;DHT22;63849;47.546;19.254;2023-04-06T06:49:28;8.40;42.70
51215;DHT22;63849;47.546;19.254;2023-04-06T06:51:53;8.50;42.80
51215;DHT22;63849;47.546;19.254;2023-04-06T06:54:20;8.50;42.30
51215;DHT22;63849;47.546;19.254;2023-04-06T06:56:46;8.50;41.90
51215;DHT22;63849;47.546;19.254;2023-04-06T06:59:12;8.30;41.90
51215;DHT22;63849;47.546;19.254;2023-04-06T07:01:38;8.50;42.30
51215;DHT22;63849;47.546;19.254;2023-04-06T07:04:04;8.40;42.00
51215;DHT22;63849;47.546;19.254;2023-04-06T07:06:30;8.60;41.00
51215;DHT22;63849;47.546;19.254;2023-04-06T07:09:00;9.00;39.90
51215;DHT22;63849;47.546;19.254;2023-04-06T07:11:26;9.10;40.10
51215;DHT22;63849;47.546;19.254;2023-04-06T07:13:55;9.30;39.60
51215;DHT22;63849;47.546;19.254;2023-04-06T07:16:24;8.80;38.10
51215;DHT22;63849;47.546;19.254;2023-04-06T07:18:50;7.30;39.00
51215;DHT22;63849;47.546;19.254;2023-04-06T07:21:22;7.60;41.20
51215;DHT22;63849;47.546;19.254;2023-04-06T07:23:47;7.90;40.60
51215;DHT22;63849;47.546;19.254;2023-04-06T07:26:14;8.00;40.60
51215;DHT22;63849;47.546;19.254;2023-04-06T07:28:47;7.80;39.60
51215;DHT22;63849;47.546;19.254;2023-04-06T07:31:14;7.90;40.20
51215;DHT22;63849;47.546;19.254;2023-04-06T07:33:40;7.40;42.10
51215;DHT22;63849;47.546;19.254;2023-04-06T07:36:06;7.70;40.60
51215;DHT22;63849;47.546;19.254;2023-04-06T07:38:32;7.80;41.10
51215;DHT22;63849;47.546;19.254;2023-04-06T07:40:58;7.80;40.80
51215;DHT22;63849;47.546;19.254;2023-04-06T07:43:24;7.30;40.20
51215;DHT22;63849;47.546;19.254;2023-04-06T07:45:50;6.80;42.50
51215;DHT22;63849;47.546;19.254;2023-04-06T07:48:15;6.80;43.40
51215;DHT22;63849;47.546;19.254;2023-04-06T07:50:44;6.60;41.40
51215;DHT22;63849;47.546;19.254;2023-04-06T07:53:11;7.00;41.30
51215;DHT22;63849;47.546;19.254;2023-04-06T07:55:39;7.00;42.40
51215;DHT22;63849;47.546;19.254;2023-04-06T07:58:05;7.30;41.90
51215;DHT22;63849;47.546;19.254;2023-04-06T08:00:32;7.30;41.50
51215;DHT22;63849;47.546;19.254;2023-04-06T08:03:01;7.50;41.00
51215;DHT22;63849;47.546;19.254;2023-04-06T08:05:27;7.40;40.00
51215;DHT22;63849;47.546;19.254;2023-04-06T08:07:53;7.40;40.00
51215;DHT22;63849;47.546;19.254;2023-04-06T08:10:21;7.50;40.40
51215;DHT22;63849;47.546;19.254;2023-04-06T08:12:47;7.30;40.90
51215;DHT22;63849;47.546;19.254;2023-04-06T08:15:16;6.70;39.60
51215;DHT22;63849;47.546;19.254;2023-04-06T08:17:44;7.40;39.90
51215;DHT22;63849;47.546;19.254;2023-04-06T08:20:10;7.00;40.10
51215;DHT22;63849;47.546;19.254;2023-04-06T08:22:36;7.10;39.50
51215;DHT22;63849;47.546;19.254;2023-04-06T08:25:02;7.10;41.40
51215;DHT22;63849;47.546;19.254;2023-04-06T08:27:29;7.40;40.30
51215;DHT22;63849;47.546;19.254;2023-04-06T08:29:54;7.20;39.70
51215;DHT22;63849;47.546;19.254;2023-04-06T08:32:21;7.70;40.00
51215;DHT22;63849;47.546;19.254;2023-04-06T08:34:47;7.40;40.80
51215;DHT22;63849;47.546;19.254;2023-04-06T08:37:16;7.60;38.20
51215;DHT22;63849;47.546;19.254;2023-04-06T08:39:43;7.40;39.10
51215;DHT22;63849;47.546;19.254;2023-04-06T08:42:19;7.80;39.80
51215;DHT22;63849;47.546;19.254;2023-04-06T08:44:47;7.00;37.70
51215;DHT22;63849;47.546;19.254;2023-04-06T08:47:13;7.50;40.00
51215;DHT22;63849;47.546;19.254;2023-04-06T08:49:43;7.90;36.60
51215;DHT22;63849;47.546;19.254;2023-04-06T08:52:11;7.20;38.50
51215;DHT22;63849;47.546;19.254;2023-04-06T08:54:41;6.80;38.20
51215;DHT22;63849;47.546;19.254;2023-04-06T08:57:07;6.30;38.00
51215;DHT22;63849;47.546;19.254;2023-04-06T08:59:34;7.10;38.40
51215;DHT22;63849;47.546;19.254;2023-04-06T09:02:03;7.10;36.90
51215;DHT22;63849;47.546;19.254;2023-04-06T09:04:35;7.60;37.80
51215;DHT22;63849;47.546;19.254;2023-04-06T09:07:08;7.10;37.30
51215;DHT22;63849;47.546;19.254;2023-04-06T09:09:34;6.90;39.30
51215;DHT22;63849;47.546;19.254;2023-04-06T09:12:00;7.20;38.80
51215;DHT22;63849;47.546;19.254;2023-04-06T09:14:38;8.20;38.40
51215;DHT22;63849;47.546;19.254;2023-04-06T09:17:05;8.40;37.20
51215;DHT22;63849;47.546;19.254;2023-04-06T09:19:48;8.40;36.60
51215;DHT22;63849;47.546;19.254;2023-04-06T09:22:18;8.00;36.80
51215;DHT22;63849;47.546;19.254;2023-04-06T09:24:49;8.60;37.60
51215;DHT22;63849;47.546;19.254;2023-04-06T09:27:15;8.80;36.40
51215;DHT22;63849;47.546;19.254;2023-04-06T09:29:42;8.20;35.80
51215;DHT22;63849;47.546;19.254;2023-04-06T09:32:09;8.60;35.20
51215;DHT22;63849;47.546;19.254;2023-04-06T09:34:39;8.40;35.70
51215;DHT22;63849;47.546;19.254;2023-04-06T09:37:20;7.50;37.00
51215;DHT22;63849;47.546;19.254;2023-04-06T09:39:46;7.50;36.50
51215;DHT22;63849;47.546;19.254;2023-04-06T09:42:24;8.30;38.00
51215;DHT22;63849;47.546;19.254;2023-04-06T09:44:51;8.90;37.10
51215;DHT22;63849;47.546;19.254;2023-04-06T09:47:17;8.80;36.30
51215;DHT22;63849;47.546;19.254;2023-04-06T09:49:43;8.90;36.30
51215;DHT22;63849;47.546;19.254;2023-04-06T09:52:11;8.60;35.80
51215;DHT22;63849;47.546;19.254;2023-04-06T09:54:38;8.70;36.10
51215;DHT22;63849;47.546;19.254;2023-04-06T09:57:07;8.40;37.20
51215;DHT22;63849;47.546;19.254;2023-04-06T10:08:12;8.50;35.90
51215;DHT22;63849;47.546;19.254;2023-04-06T10:10:38;8.60;35.10
51215;DHT22;63849;47.546;19.254;2023-04-06T10:13:05;8.10;35.30
51215;DHT22;63849;47.546;19.254;2023-04-06T10:15:32;8.60;38.50
51215;DHT22;63849;47.546;19.254;2023-04-06T10:17:58;9.20;37.40
51215;DHT22;63849;47.546;19.254;2023-04-06T10:20:50;8.80;35.10
51215;DHT22;63849;47.546;19.254;2023-04-06T10:23:44;9.10;36.30
51215;DHT22;63849;47.546;19.254;2023-04-06T10:26:20;9.60;35.20
51215;DHT22;63849;47.546;19.254;2023-04-06T10:28:47;9.80;34.80
51215;DHT22;63849;47.546;19.254;2023-04-06T10:31:13;8.60;34.00
51215;DHT22;63849;47.546;19.254;2023-04-06T10:33:39;8.90;35.40
51215;DHT22;63849;47.546;19.254;2023-04-06T10:36:32;8.80;34.80
51215;DHT22;63849;47.546;19.254;2023-04-06T10:39:00;7.80;34.00
51215;DHT22;63849;47.546;19.254;2023-04-06T10:41:41;7.80;34.80
51215;DHT22;63849;47.546;19.254;2023-04-06T10:44:07;7.60;35.50
51215;DHT22;63849;47.546;19.254;2023-04-06T10:46:33;7.80;34.10
51215;DHT22;63849;47.546;19.254;2023-04-06T10:49:19;7.90;33.20
51215;DHT22;63849;47.546;19.254;2023-04-06T10:51:54;8.00;34.10
51215;DHT22;63849;47.546;19.254;2023-04-06T10:54:25;7.90;34.80
51215;DHT22;63849;47.546;19.254;2023-04-06T10:56:52;7.90;34.00
51215;DHT22;63849;47.546;19.254;2023-04-06T10:59:21;8.10;35.20
51215;DHT22;63849;47.546;19.254;2023-04-06T11:01:48;8.50;34.00
51215;DHT22;63849;47.546;19.254;2023-04-06T11:04:17;8.70;34.20
51215;DHT22;63849;47.546;19.254;2023-04-06T11:06:47;8.90;34.60
51215;DHT22;63849;47.546;19.254;2023-04-06T11:09:23;9.40;34.60
51215;DHT22;63849;47.546;19.254;2023-04-06T11:11:50;8.30;34.40
51215;DHT22;63849;47.546;19.254;2023-04-06T11:14:16;8.60;35.20
51215;DHT22;63849;47.546;19.254;2023-04-06T11:16:42;9.20;34.10
51215;DHT22;63849;47.546;19.254;2023-04-06T11:19:08;9.10;32.60
51215;DHT22;63849;47.546;19.254;2023-04-06T11:21:41;8.60;33.40
51215;DHT22;63849;47.546;19.254;2023-04-06T11:24:09;8.20;33.40
51215;DHT22;63849;47.546;19.254;2023-04-06T11:26:40;8.20;33.70
51215;DHT22;63849;47.546;19.254;2023-04-06T11:29:07;8.50;34.50
51215;DHT22;63849;47.546;19.254;2023-04-06T11:31:46;8.70;33.30
51215;DHT22;63849;47.546;19.254;2023-04-06T11:34:20;8.80;33.40
51215;DHT22;63849;47.546;19.254;2023-04-06T11:36:47;8.60;33.50
51215;DHT22;63849;47.546;19.254;2023-04-06T11:39:20;8.80;33.60
51215;DHT22;63849;47.546;19.254;2023-04-06T11:41:50;8.20;33.80
51215;DHT22;63849;47.546;19.254;2023-04-06T11:44:34;8.30;33.40
51215;DHT22;63849;47.546;19.254;2023-04-06T11:47:00;7.90;32.80
51215;DHT22;63849;47.546;19.254;2023-04-06T11:49:27;7.70;33.50
51215;DHT22;63849;47.546;19.254;2023-04-06T11:51:54;7.60;34.20
51215;DHT22;63849;47.546;19.254;2023-04-06T11:54:37;7.40;34.50
51215;DHT22;63849;47.546;19.254;2023-04-06T11:57:04;7.70;33.70
51215;DHT22;63849;47.546;19.254;2023-04-06T11:59:31;7.30;33.70
51215;DHT22;63849;47.546;19.254;2023-04-06T12:02:01;7.50;34.10
51215;DHT22;63849;47.546;19.254;2023-04-06T12:04:27;7.40;34.00
51215;DHT22;63849;47.546;19.254;2023-04-06T12:06:53;7.40;34.70
51215;DHT22;63849;47.546;19.254;2023-04-06T12:09:19;7.50;35.10
51215;DHT22;63849;47.546;19.254;2023-04-06T12:11:46;7.90;34.60
51215;DHT22;63849;47.546;19.254;2023-04-06T12:14:12;8.10;34.30
51215;DHT22;63849;47.546;19.254;2023-04-06T12:16:38;8.30;34.60
51215;DHT22;63849;47.546;19.254;2023-04-06T12:19:04;8.80;33.80
51215;DHT22;63849;47.546;19.254;2023-04-06T12:21:31;8.30;33.80
51215;DHT22;63849;47.546;19.254;2023-04-06T12:23:58;8.80;34.10
51215;DHT22;63849;47.546;19.254;2023-04-06T12:26:24;8.70;34.10
51215;DHT22;63849;47.546;19.254;2023-04-06T12:28:50;8.60;34.30
51215;DHT22;63849;47.546;19.254;2023-04-06T12:31:16;7.90;34.20
51215;DHT22;63849;47.546;19.254;2023-04-06T12:33:43;8.20;34.30
51215;DHT22;63849;47.546;19.254;2023-04-06T12:36:14;8.40;34.00
51215;DHT22;63849;47.546;19.254;2023-04-06T12:38:41;8.40;34.50
51215;DHT22;63849;47.546;19.254;2023-04-06T12:41:07;8.40;33.80
51215;DHT22;63849;47.546;19.254;2023-04-06T12:43:33;8.10;33.80
51215;DHT22;63849;47.546;19.254;2023-04-06T12:45:59;8.30;33.20
51215;DHT22;63849;47.546;19.254;2023-04-06T12:48:25;8.50;34.60
51215;DHT22;63849;47.546;19.254;2023-04-06T12:51:00;8.80;34.30
51215;DHT22;63849;47.546;19.254;2023-04-06T12:53:26;8.40;35.20
51215;DHT22;63849;47.546;19.254;2023-04-06T12:55:56;8.80;33.80
51215;DHT22;63849;47.546;19.254;2023-04-06T12:58:22;8.10;33.80
51215;DHT22;63849;47.546;19.254;2023-04-06T13:00:49;8.40;37.00
51215;DHT22;63849;47.546;19.254;2023-04-06T13:03:18;8.40;38.10
51215;DHT22;63849;47.546;19.254;2023-04-06T13:05:45;8.20;37.80
51215;DHT22;63849;47.546;19.254;2023-04-06T13:08:11;7.80;37.00
51215;DHT22;63849;47.546;19.254;2023-04-06T13:10:37;7.80;38.60
51215;DHT22;63849;47.546;19.254;2023-04-06T13:13:03;7.80;39.40
51215;DHT22;63849;47.546;19.254;2023-04-06T13:15:29;7.40;40.60
51215;DHT22;63849;47.546;19.254;2023-04-06T13:17:55;7.90;40.00
51215;DHT22;63849;47.546;19.254;2023-04-06T13:20:21;8.30;39.90
51215;DHT22;63849;47.546;19.254;2023-04-06T13:22:46;8.50;38.80
51215;DHT22;63849;47.546;19.254;2023-04-06T13:25:12;8.10;39.30
51215;DHT22;63849;47.546;19.254;2023-04-06T13:27:38;7.50;41.00
51215;DHT22;63849;47.546;19.254;2023-04-06T13:30:05;7.80;41.80
51215;DHT22;63849;47.546;19.254;2023-04-06T13:32:32;7.90;40.90
51215;DHT22;63849;47.546;19.254;2023-04-06T13:34:58;8.20;39.60
51215;DHT22;63849;47.546;19.254;2023-04-06T13:37:23;8.20;40.00
51215;DHT22;63849;47.546;19.254;2023-04-06T13:39:49;8.20;39.90
51215;DHT22;63849;47.546;19.254;2023-04-06T13:42:15;8.40;41.50
51215;DHT22;63849;47.546;19.254;2023-04-06T13:44:41;8.40;39.70
51215;DHT22;63849;47.546;19.254;2023-04-06T13:47:07;8.20;38.70
51215;DHT22;63849;47.546;19.254;2023-04-06T13:49:32;8.20;40.20
51215;DHT22;63849;47.546;19.254;2023-04-06T13:51:58;8.30;39.50
51215;DHT22;63849;47.546;19.254;2023-04-06T13:54:26;7.70;40.00
51215;DHT22;63849;47.546;19.254;2023-04-06T13:56:52;7.90;40.30
51215;DHT22;63849;47.546;19.254;2023-04-06T13:59:17;8.40;40.80
51215;DHT22;63849;47.546;19.254;2023-04-06T14:01:43;8.80;40.30
51215;DHT22;63849;47.546;19.254;2023-04-06T14:04:09;8.60;40.00
51215;DHT22;63849;47.546;19.254;2023-04-06T14:06:36;8.70;40.30
51215;DHT22;63849;47.546;19.254;2023-04-06T14:09:02;8.20;40.10
51215;DHT22;63849;47.546;19.254;2023-04-06T14:11:29;7.90;41.30
51215;DHT22;63849;47.546;19.254;2023-04-06T14:13:55;7.90;41.20
51215;DHT22;63849;47.546;19.254;2023-04-06T14:16:23;7.90;41.40
51215;DHT22;63849;47.546;19.254;2023-04-06T14:18:50;7.90;41.40
51215;DHT22;63849;47.546;19.254;2023-04-06T14:21:16;7.90;41.00
51215;DHT22;63849;47.546;19.254;2023-04-06T14:23:42;7.80;42.30
51215;DHT22;63849;47.546;19.254;2023-04-06T14:26:08;8.10;42.00
51215;DHT22;63849;47.546;19.254;2023-04-06T14:28:34;8.10;41.80
51215;DHT22;63849;47.546;19.254;2023-04-06T14:31:08;7.90;45.10
51215;DHT22;63849;47.546;19.254;2023-04-06T14:33:34;7.80;44.50
51215;DHT22;63849;47.546;19.254;2023-04-06T14:36:03;8.20;43.40
51215;DHT22;63849;47.546;19.254;2023-04-06T14:38:29;8.00;43.10
51215;DHT22;63849;47.546;19.254;2023-04-06T14:40:55;7.40;45.10
51215;DHT22;63849;47.546;19.254;2023-04-06T14:43:21;7.70;44.40
51215;DHT22;63849;47.546;19.254;2023-04-06T14:45:47;7.90;45.00
51215;DHT22;63849;47.546;19.254;2023-04-06T14:48:13;8.30;44.90
51215;DHT22;63849;47.546;19.254;2023-04-06T14:50:41;8.60;44.30
51215;DHT22;63849;47.546;19.254;2023-04-06T14:53:11;8.50;41.40
51215;DHT22;63849;47.546;19.254;2023-04-06T14:55:40;7.80;42.30
51215;DHT22;63849;47.546;19.254;2023-04-06T14:58:06;7.80;43.40
51215;DHT22;63849;47.546;19.254;2023-04-06T15:00:32;7.70;43.00
51215;DHT22;63849;47.546;19.254;2023-04-06T15:02:58;7.90;44.20
51215;DHT22;63849;47.546;19.254;2023-04-06T15:05:24;8.10;43.60
51215;DHT22;63849;47.546;19.254;2023-04-06T15:07:51;8.00;45.00
51215;DHT22;63849;47.546;19.254;2023-04-06T15:10:17;8.10;43.60
51215;DHT22;63849;47.546;19.254;2023-04-06T15:12:42;8.10;43.80
51215;DHT22;63849;47.546;19.254;2023-04-06T15:15:08;7.90;43.60
51215;DHT22;63849;47.546;19.254;2023-04-06T15:17:34;8.10;44.70
51215;DHT22;63849;47.546;19.254;2023-04-06T15:20:00;7.80;44.90
51215;DHT22;63849;47.546;19.254;2023-04-06T15:22:26;7.70;45.60
51215;DHT22;63849;47.546;19.254;2023-04-06T15:24:51;7.80;45.80
51215;DHT22;63849;47.546;19.254;2023-04-06T15:27:17;7.80;46.40
51215;DHT22;63849;47.546;19.254;2023-04-06T15:29:43;7.80;46.40
51215;DHT22;63849;47.546;19.254;2023-04-06T15:32:09;7.40;46.50
51215;DHT22;63849;47.546;19.254;2023-04-06T15:34:35;7.40;47.20
51215;DHT22;63849;47.546;19.254;2023-04-06T15:37:01;7.20;47.40